Time;durP1;ratioP1;P1;durP2;ratioP2;P2;SDS_P1;SDS_P2;PMS_P1;PMS_P2;Temp;Humidity;BMP_temperature;BMP_pressure;BME280_temperature;BME280_humidity;BME280_pressure;Samples;Min_cycle;Max_cycle;Signal;HPM_P1;HPM_P2
2021/04/08 00:01:32;;;;;;;8.03;4.90;;;;;;;-2.28;78.92;96326.25;1733690;82;21494;-88
2021/04/08 00:04:00;;;;;;;4.25;3.40;;;;;;;-2.27;78.80;96323.45;1725757;82;21138;-88
2021/04/08 00:06:27;;;;;;;8.50;4.33;;;;;;;-2.23;78.59;96314.77;1721516;83;21192;-88
2021/04/08 00:08:54;;;;;;;6.75;3.65;;;;;;;-2.18;78.41;96321.44;1718653;83;21153;-88
2021/04/08 00:11:21;;;;;;;6.58;3.52;;;;;;;-2.18;78.10;96318.84;1710824;83;21261;-88
2021/04/08 00:13:48;;;;;;;3.37;2.52;;;;;;;-2.16;77.80;96318.13;1734063;82;21265;-88
2021/04/08 00:16:15;;;;;;;5.78;3.65;;;;;;;-2.04;77.55;96312.59;1725040;83;21148;-88
2021/04/08 00:18:44;;;;;;;5.15;3.58;;;;;;;-2.00;77.29;96312.97;1734087;82;21096;-87
2021/04/08 00:21:12;;;;;;;8.10;5.20;;;;;;;-1.95;77.06;96321.76;1715753;83;21648;-88
2021/04/08 00:23:39;;;;;;;9.80;5.28;;;;;;;-1.95;76.93;96319.16;1724065;83;21177;-88
2021/04/08 00:26:06;;;;;;;6.28;4.28;;;;;;;-1.94;76.96;96318.16;1732250;83;21505;-88
2021/04/08 00:28:33;;;;;;;7.65;4.30;;;;;;;-1.93;76.67;96306.76;1734128;82;21292;-88
2021/04/08 00:31:00;;;;;;;7.87;4.17;;;;;;;-1.91;76.61;96311.74;1731171;82;21127;-88
2021/04/08 00:33:27;;;;;;;7.33;3.65;;;;;;;-1.89;76.27;96318.33;1721044;82;21171;-88
2021/04/08 00:35:54;;;;;;;3.52;2.75;;;;;;;-1.87;76.06;96325.41;1718504;82;21131;-88
2021/04/08 00:38:21;;;;;;;6.58;3.62;;;;;;;-1.86;75.87;96317.91;1706876;84;21161;-88
2021/04/08 00:40:49;;;;;;;6.90;3.65;;;;;;;-1.85;75.63;96309.10;1722385;82;21444;-88
2021/04/08 00:43:16;;;;;;;8.15;4.95;;;;;;;-1.82;75.56;96315.20;1717682;82;21127;-86
2021/04/08 00:45:43;;;;;;;8.18;5.20;;;;;;;-1.86;75.54;96321.80;1696982;84;21191;-87
2021/04/08 00:48:11;;;;;;;7.90;4.65;;;;;;;-1.92;75.55;96314.84;1712922;84;21105;-87
2021/04/08 00:50:38;;;;;;;9.40;5.55;;;;;;;-1.89;75.45;96323.52;1696577;84;21172;-88
2021/04/08 00:53:13;;;;;;;8.40;5.30;;;;;;;-1.92;75.39;96322.64;1711850;82;21511;-87
2021/04/08 00:55:43;;;;;;;5.12;3.30;;;;;;;-1.85;75.38;96320.80;1712839;83;21484;-89
2021/04/08 00:58:12;;;;;;;;;;;;;;;-1.84;75.11;96310.70;1715253;84;21124;-88
2021/04/08 01:00:42;;;;;;;5.67;3.75;;;;;;;-1.78;74.80;96318.18;1707436;84;20183;-89
2021/04/08 01:03:11;;;;;;;5.28;3.17;;;;;;;-1.75;74.54;96302.17;1712600;84;21163;-88
2021/04/08 01:05:38;;;;;;;10.28;3.72;;;;;;;-1.70;74.37;96296.34;1702546;84;21133;-88
2021/04/08 01:08:07;;;;;;;4.95;3.20;;;;;;;-1.69;74.21;96313.52;1710667;84;21455;-88
2021/04/08 01:10:34;;;;;;;7.35;4.85;;;;;;;-1.69;74.00;96305.72;1711559;83;21124;-88
2021/04/08 01:13:09;;;;;;;5.47;3.17;;;;;;;-1.71;74.12;96316.33;1712836;83;21168;-88
2021/04/08 01:15:37;;;;;;;6.87;3.67;;;;;;;-1.81;74.07;96316.80;1710536;84;21144;-87
2021/04/08 01:18:28;;;;;;;7.87;4.75;;;;;;;-1.74;74.08;96308.16;1712446;84;21180;-88
2021/04/08 01:21:32;;;;;;;5.65;4.03;;;;;;;-1.67;73.86;96325.33;1712619;84;21148;-89
2021/04/08 01:24:28;;;;;;;7.60;5.42;;;;;;;-1.65;73.67;96316.02;1712471;84;21534;-88
2021/04/08 01:27:43;;;;;;;5.95;3.80;;;;;;;-1.62;73.54;96320.80;1702142;83;21123;-88
2021/04/08 01:30:39;;;;;;;8.50;5.15;;;;;;;-1.61;73.40;96323.69;1700482;82;21533;-89
2021/04/08 01:33:20;;;;;;;3.98;2.22;;;;;;;-1.61;73.39;96324.98;1722754;82;21494;-89
2021/04/08 01:35:49;;;;;;;6.65;3.87;;;;;;;-1.70;73.38;96317.13;1745734;82;21118;-89
2021/04/08 01:38:24;;;;;;;6.00;3.22;;;;;;;-1.74;73.40;96318.55;1756875;81;21478;-87
2021/04/08 01:40:52;;;;;;;2.50;2.00;;;;;;;-1.72;73.46;96310.05;1772970;80;21496;-88
2021/04/08 01:43:27;;;;;;;5.92;4.20;;;;;;;-1.78;73.52;96316.09;1790170;80;21091;-88
2021/04/08 01:45:58;;;;;;;6.42;3.80;;;;;;;-1.83;73.60;96325.78;1789327;80;21071;-88
2021/04/08 01:48:28;;;;;;;7.62;3.40;;;;;;;-1.84;73.73;96322.89;1776040;80;21474;-88
2021/04/08 01:50:59;;;;;;;5.83;3.25;;;;;;;-1.85;73.74;96335.59;1773879;80;21109;-88
2021/04/08 01:53:28;;;;;;;7.20;3.42;;;;;;;-1.92;73.84;96331.73;1765694;79;21102;-87
2021/04/08 01:55:59;;;;;;;3.83;2.62;;;;;;;-1.94;73.96;96338.14;1787139;80;21446;-88
2021/04/08 01:58:28;;;;;;;5.30;3.60;;;;;;;-2.00;74.07;96325.95;1790349;80;21094;-88
2021/04/08 02:00:58;;;;;;;3.70;2.42;;;;;;;-2.05;74.30;96327.88;1784771;80;21102;-88
2021/04/08 02:03:26;;;;;;;6.08;2.77;;;;;;;-2.08;74.43;96338.69;1762893;80;21169;-88
2021/04/08 02:05:56;;;;;;;7.70;4.00;;;;;;;-2.10;74.62;96338.09;1759902;80;21433;-88
2021/04/08 02:08:32;;;;;;;6.37;3.47;;;;;;;-2.14;74.76;96344.69;1732301;82;21480;-88
2021/04/08 02:11:01;;;;;;;5.85;3.45;;;;;;;-2.18;74.87;96334.42;1739624;82;21264;-88
2021/04/08 02:13:29;;;;;;;5.47;3.12;;;;;;;-2.14;74.95;96343.38;1723161;82;21071;-88
2021/04/08 02:15:58;;;;;;;8.93;4.15;;;;;;;-2.16;75.02;96351.88;1775618;80;21438;-88
2021/04/08 02:18:26;;;;;;;5.67;2.40;;;;;;;-2.18;75.07;96351.30;1762062;80;21130;-88
2021/04/08 02:20:56;;;;;;;5.00;3.10;;;;;;;-2.17;75.12;96351.59;1775984;80;21109;-88
2021/04/08 02:23:26;;;;;;;6.67;3.77;;;;;;;-2.22;75.20;96343.63;1790295;80;21097;-88
2021/04/08 02:25:55;;;;;;;9.25;4.25;;;;;;;-2.24;75.25;96350.83;1769467;80;21117;-89
2021/04/08 02:28:27;;;;;;;7.80;4.42;;;;;;;-2.28;75.34;96349.61;1773467;80;21087;-88
2021/04/08 02:30:55;;;;;;;7.83;3.87;;;;;;;-2.33;75.36;96354.62;1776264;80;21099;-88
2021/04/08 02:33:31;;;;;;;7.30;2.85;;;;;;;-2.38;75.51;96355.75;1782557;80;21451;-88
2021/04/08 02:36:00;;;;;;;6.55;3.15;;;;;;;-2.46;75.64;96346.36;1785855;80;21442;-89
2021/04/08 02:38:31;;;;;;;6.80;3.20;;;;;;;-2.50;75.76;96355.56;1769164;80;21101;-87
2021/04/08 02:41:08;;;;;;;8.15;4.42;;;;;;;-2.55;75.89;96348.36;1785647;80;21186;-89
2021/04/08 02:43:36;;;;;;;7.25;4.37;;;;;;;-2.57;75.89;96352.96;1782309;80;21128;-88
2021/04/08 02:46:04;;;;;;;5.42;3.92;;;;;;;-2.62;75.99;96345.50;1750054;81;21123;-88
2021/04/08 02:48:33;;;;;;;7.15;3.52;;;;;;;-2.64;76.06;96339.21;1735881;82;21116;-87
2021/04/08 02:51:12;;;;;;;7.50;4.78;;;;;;;-2.66;76.03;96346.91;1742914;82;21312;-88
2021/04/08 02:53:59;;;;;;;8.88;5.33;;;;;;;-2.66;75.94;96351.59;1691910;82;21161;-88
2021/04/08 02:56:40;;;;;;;6.78;4.33;;;;;;;-2.69;76.06;96351.97;1749697;82;21285;-88
2021/04/08 02:59:24;;;;;;;8.90;5.25;;;;;;;-2.71;76.12;96344.89;1706747;83;21123;-88
2021/04/08 03:02:03;;;;;;;5.15;3.25;;;;;;;-2.66;76.41;96347.70;1702417;83;21160;-88
2021/04/08 03:04:53;;;;;;;5.22;3.52;;;;;;;-2.47;76.60;96341.67;1792182;79;22972;-88
2021/04/08 03:07:25;;;;;;;6.12;4.33;;;;;;;-2.35;76.35;96351.44;1758565;80;21136;-89
2021/04/08 03:09:55;;;;;;;7.45;4.53;;;;;;;-2.30;76.01;96351.63;1754341;80;21125;-88
2021/04/08 03:12:24;;;;;;;5.30;3.37;;;;;;;-2.30;75.92;96341.23;1775476;79;21132;-88
2021/04/08 03:14:54;;;;;;;4.08;2.83;;;;;;;-2.31;75.91;96345.63;1781918;79;21088;-87
2021/04/08 03:17:29;;;;;;;6.67;3.90;;;;;;;-2.26;75.97;96352.80;1788158;79;21467;-88
2021/04/08 03:19:59;;;;;;;6.03;3.25;;;;;;;-2.24;75.86;96346.93;1810534;79;21150;-89
2021/04/08 03:22:28;;;;;;;5.83;3.90;;;;;;;-2.22;75.70;96338.44;1782165;79;21113;-87
2021/04/08 03:24:57;;;;;;;5.58;3.02;;;;;;;-2.17;75.58;96355.48;1741433;82;21114;-87
2021/04/08 03:27:29;;;;;;;6.47;3.58;;;;;;;-2.16;75.33;96354.48;1743485;81;21139;-87
2021/04/08 03:29:57;;;;;;;3.47;2.42;;;;;;;-2.17;75.06;96360.17;1730797;81;21119;-89
2021/04/08 03:32:25;;;;;;;6.05;3.55;;;;;;;-2.16;74.95;96359.67;1734198;82;21253;-88
2021/04/08 03:34:55;;;;;;;4.22;2.62;;;;;;;-2.20;74.82;96369.68;1747871;81;21169;-87
2021/04/08 03:37:23;;;;;;;6.37;4.10;;;;;;;-2.25;74.88;96372.57;1703571;82;21485;-88
2021/04/08 03:39:50;;;;;;;7.47;4.05;;;;;;;-2.30;74.93;96363.30;1762412;81;21112;-88
2021/04/08 03:42:18;;;;;;;4.10;3.17;;;;;;;-2.29;74.94;96370.88;1746607;81;21488;-88
2021/04/08 03:44:46;;;;;;;7.03;3.30;;;;;;;-2.24;74.78;96366.41;1751416;81;21486;-88
2021/04/08 03:47:16;;;;;;;5.25;3.12;;;;;;;-2.20;74.68;96368.88;1747058;81;21502;-89
2021/04/08 03:49:43;;;;;;;4.83;2.80;;;;;;;-2.18;74.51;96355.98;1749556;81;21259;-89
2021/04/08 03:52:12;;;;;;;4.53;2.60;;;;;;;-2.14;74.30;96371.45;1760159;81;21122;-88
2021/04/08 03:54:41;;;;;;;7.20;4.45;;;;;;;-2.14;74.21;96364.95;1734872;81;21135;-88
2021/04/08 03:57:13;;;;;;;5.28;3.15;;;;;;;-2.16;74.20;96363.57;1747543;81;21156;-88
2021/04/08 03:59:43;;;;;;;7.92;3.80;;;;;;;-2.22;74.32;96365.70;1729397;81;21144;-89
2021/04/08 04:02:13;;;;;;;5.83;3.50;;;;;;;-2.23;74.41;96364.10;1754670;81;21108;-88
2021/04/08 04:04:55;;;;;;;5.12;3.33;;;;;;;-2.18;74.41;96357.28;1812716;78;22948;-89
2021/04/08 04:07:22;;;;;;;3.58;2.70;;;;;;;-2.15;74.33;96376.84;1792011;79;21116;-87
2021/04/08 04:09:49;;;;;;;4.78;3.30;;;;;;;-2.16;74.33;96363.57;1795485;79;21448;-88
2021/04/08 04:12:18;;;;;;;4.47;2.40;;;;;;;-2.11;74.34;96350.79;1795965;79;21265;-88
2021/04/08 04:14:47;;;;;;;2.77;2.37;;;;;;;-2.06;74.30;96361.35;1759091;81;21084;-89
2021/04/08 04:17:27;;;;;;;7.50;3.62;;;;;;;-2.00;74.21;96351.42;1768508;80;21498;-89
2021/04/08 04:19:56;;;;;;;4.37;2.65;;;;;;;-1.72;73.78;96352.92;1739365;81;21146;-89
2021/04/08 04:22:24;;;;;;;4.95;3.08;;;;;;;-1.50;73.14;96350.33;1755737;81;21132;-90
2021/04/08 04:24:52;;;;;;;7.47;4.37;;;;;;;-0.98;72.31;96363.52;1755892;81;21168;-88
2021/04/08 04:27:19;;;;;;;7.62;3.45;;;;;;;-0.81;71.16;96351.27;1744608;81;21122;-89
2021/04/08 04:29:46;;;;;;;6.30;3.80;;;;;;;-1.15;71.45;96354.60;1733885;81;21103;-89
2021/04/08 04:32:13;;;;;;;6.70;3.77;;;;;;;-1.37;72.13;96365.85;1733419;80;21144;-90
2021/04/08 04:34:42;;;;;;;5.00;4.10;;;;;;;-1.45;72.69;96373.88;1727959;81;21130;-89
2021/04/08 04:37:11;;;;;;;4.05;2.87;;;;;;;-1.50;73.15;96367.22;1751226;81;21119;-90
2021/04/08 04:39:39;;;;;;;6.72;4.03;;;;;;;-1.48;73.31;96365.20;1731856;81;21474;-89
2021/04/08 04:42:08;;;;;;;7.00;3.65;;;;;;;-1.35;73.34;96381.24;1737631;81;21144;-89
2021/04/08 04:44:35;;;;;;;3.90;3.15;;;;;;;-0.73;72.29;96367.41;1725032;81;21123;-89
2021/04/08 04:47:03;;;;;;;7.05;4.62;;;;;;;-0.82;71.65;96368.69;1754631;81;21150;-89
2021/04/08 04:49:30;;;;;;;5.97;3.20;;;;;;;-0.95;71.94;96379.20;1759582;81;21176;-89
2021/04/08 04:51:57;;;;;;;5.37;3.05;;;;;;;-0.94;72.16;96380.79;1746165;81;21143;-89
2021/04/08 04:54:24;;;;;;;7.28;4.35;;;;;;;-1.02;72.22;96379.23;1745914;81;21496;-89
2021/04/08 04:56:51;;;;;;;8.63;5.15;;;;;;;-1.03;72.57;96377.63;1741740;81;21122;-89
2021/04/08 04:59:19;;;;;;;5.70;3.90;;;;;;;-0.98;72.68;96378.33;1760513;81;21148;-89
2021/04/08 05:01:46;;;;;;;5.67;3.58;;;;;;;-0.86;72.54;96378.41;1757523;81;21127;-89
2021/04/08 05:04:13;;;;;;;9.98;5.80;;;;;;;-0.84;72.42;96375.13;1741645;81;21135;-89
2021/04/08 05:06:40;;;;;;;9.75;5.10;;;;;;;-0.87;72.34;96377.62;1733969;82;21116;-89
2021/04/08 05:09:07;;;;;;;5.80;3.33;;;;;;;-0.82;72.21;96397.83;1727113;82;21123;-89
2021/04/08 05:11:35;;;;;;;5.85;4.10;;;;;;;-0.88;72.31;96381.23;1706808;82;21161;-89
2021/04/08 05:14:02;;;;;;;5.05;3.40;;;;;;;-1.02;72.53;96389.63;1733905;82;21163;-89
2021/04/08 05:16:29;;;;;;;4.37;3.67;;;;;;;-1.06;72.79;96398.08;1731744;82;21124;-90
2021/04/08 05:18:56;;;;;;;7.22;4.08;;;;;;;-1.07;73.10;96395.19;1721051;82;21490;-90
2021/04/08 05:21:23;;;;;;;7.03;4.70;;;;;;;-1.09;73.08;96407.10;1717016;82;21162;-89
2021/04/08 05:23:50;;;;;;;7.53;3.62;;;;;;;-1.07;73.18;96406.89;1712356;82;21159;-89
2021/04/08 05:26:18;;;;;;;8.65;5.00;;;;;;;-1.02;72.94;96412.25;1730742;82;21135;-89
2021/04/08 05:28:45;;;;;;;8.15;5.12;;;;;;;-0.97;72.98;96406.73;1732883;82;21132;-87
2021/04/08 05:31:13;;;;;;;5.42;3.37;;;;;;;-0.90;73.01;96399.66;1715743;82;21143;-87
2021/04/08 05:33:40;;;;;;;9.90;6.30;;;;;;;-0.84;72.95;96414.16;1716437;82;21163;-87
2021/04/08 05:36:08;;;;;;;10.45;5.80;;;;;;;-0.77;72.94;96408.39;1684466;83;21155;-88
2021/04/08 05:38:35;;;;;;;7.75;5.42;;;;;;;-0.71;72.79;96412.73;1698313;83;21198;-87
2021/04/08 05:41:04;;;;;;;7.35;4.87;;;;;;;-0.64;72.66;96418.20;1689685;83;21600;-87
2021/04/08 05:43:37;;;;;;;6.83;4.87;;;;;;;-0.56;72.58;96413.25;1737081;81;21265;-88
2021/04/08 05:46:06;;;;;;;9.40;5.72;;;;;;;-0.46;72.53;96421.86;1740336;81;21270;-89
2021/04/08 05:48:32;;;;;;;6.20;4.05;;;;;;;-0.36;72.51;96423.48;1754471;81;21316;-86
2021/04/08 05:50:59;;;;;;;7.42;4.60;;;;;;;-0.26;72.49;96432.13;1750924;81;21227;-87
2021/04/08 05:53:27;;;;;;;6.60;4.12;;;;;;;-0.17;72.77;96431.63;1736504;81;21261;-87
2021/04/08 05:55:54;;;;;;;5.72;3.25;;;;;;;-0.14;72.74;96440.33;1733091;81;21479;-87
2021/04/08 05:58:21;;;;;;;3.65;3.20;;;;;;;-0.23;74.05;96460.34;1732180;81;21304;-87
2021/04/08 06:00:48;;;;;;;8.23;5.45;;;;;;;-0.40;75.27;96456.19;1746069;81;21546;-87
2021/04/08 06:03:15;;;;;;;4.55;3.02;;;;;;;-0.57;76.27;96455.09;1749738;81;21143;-87
2021/04/08 06:05:42;;;;;;;5.05;3.22;;;;;;;-0.69;77.30;96463.60;1751226;81;21092;-86
2021/04/08 06:08:10;;;;;;;6.35;4.05;;;;;;;-0.80;78.14;96473.38;1748308;81;22076;-87
2021/04/08 06:10:38;;;;;;;5.00;3.02;;;;;;;-0.90;79.02;96455.61;1765388;81;21527;-87
2021/04/08 06:13:05;;;;;;;8.68;4.55;;;;;;;-0.95;79.96;96467.16;1770648;81;21296;-86
2021/04/08 06:15:33;;;;;;;6.20;4.05;;;;;;;-0.97;80.29;96476.19;1743051;81;21097;-87
2021/04/08 06:18:00;;;;;;;5.95;3.40;;;;;;;-0.97;80.69;96483.48;1681786;83;21189;-86
2021/04/08 06:20:27;;;;;;;4.97;3.27;;;;;;;-0.99;81.23;96489.88;1769195;80;21164;-87
2021/04/08 06:22:56;;;;;;;7.33;3.33;;;;;;;-1.01;81.80;96495.80;1759852;80;21151;-87
2021/04/08 06:25:24;;;;;;;6.10;4.00;;;;;;;-1.00;82.00;96493.48;1764465;80;21285;-87
2021/04/08 06:27:52;;;;;;;7.08;4.22;;;;;;;-0.98;81.81;96499.30;1751089;80;21523;-89
2021/04/08 06:30:21;;;;;;;4.00;2.87;;;;;;;-0.93;81.62;96498.17;1761225;80;21123;-90
2021/04/08 06:32:52;;;;;;;3.27;2.87;;;;;;;-0.92;82.24;96502.36;1778020;80;21124;-88
2021/04/08 06:35:20;;;;;;;4.33;3.10;;;;;;;-0.93;82.50;96506.77;1756388;80;21123;-88
2021/04/08 06:37:50;;;;;;;4.33;3.17;;;;;;;-0.86;82.32;96507.23;1762005;80;21159;-89
2021/04/08 06:40:22;;;;;;;4.58;3.42;;;;;;;-0.81;82.50;96504.81;1751158;80;21199;-89
2021/04/08 06:42:53;;;;;;;5.62;3.90;;;;;;;-0.82;82.50;96507.12;1779141;80;21151;-88
2021/04/08 06:45:26;;;;;;;4.47;2.92;;;;;;;-0.82;82.54;96511.83;1768109;80;21292;-90
2021/04/08 06:48:18;;;;;;;5.87;3.58;;;;;;;-0.72;82.57;96510.05;1778427;80;21115;-89
2021/04/08 06:50:47;;;;;;;6.20;4.15;;;;;;;-0.64;82.51;96513.72;1771067;80;21524;-88
2021/04/08 06:53:16;;;;;;;6.40;4.50;;;;;;;-0.52;82.34;96522.97;1717608;82;21118;-88
2021/04/08 06:55:44;;;;;;;8.88;5.33;;;;;;;-0.35;82.04;96521.44;1765656;80;21108;-87
2021/04/08 06:58:11;;;;;;;5.58;2.87;;;;;;;-0.27;81.80;96527.70;1784551;80;21096;-89
2021/04/08 07:00:38;;;;;;;4.20;3.22;;;;;;;-0.20;81.66;96532.86;1770800;80;21134;-88
2021/04/08 07:03:08;;;;;;;6.83;4.55;;;;;;;-0.12;81.43;96533.41;1772040;80;21117;-88
2021/04/08 07:05:36;;;;;;;7.85;4.75;;;;;;;-0.12;81.09;96543.83;1749100;80;21104;-88
2021/04/08 07:08:04;;;;;;;3.62;2.20;;;;;;;-0.03;81.13;96541.23;1721449;82;21116;-87
2021/04/08 07:10:31;;;;;;;5.83;3.70;;;;;;;-0.07;80.94;96549.70;1720217;82;21147;-88
2021/04/08 07:12:58;;;;;;;5.85;3.90;;;;;;;-0.06;80.89;96558.59;1734400;81;21551;-88
2021/04/08 07:15:27;;;;;;;5.65;3.35;;;;;;;-0.03;80.93;96559.98;1731750;82;21161;-88
2021/04/08 07:17:54;;;;;;;6.47;4.33;;;;;;;0.01;80.88;96566.89;1727900;82;21159;-89
2021/04/08 07:20:21;;;;;;;7.33;4.15;;;;;;;0.04;80.68;96562.05;1739686;82;21467;-89
2021/04/08 07:22:49;;;;;;;5.37;3.55;;;;;;;0.05;80.52;96559.73;1732994;81;21112;-89
2021/04/08 07:25:20;;;;;;;5.60;3.35;;;;;;;0.04;80.37;96575.08;1736961;82;21668;-87
2021/04/08 07:27:49;;;;;;;5.53;3.47;;;;;;;0.16;80.50;96576.49;1732532;82;21606;-87
2021/04/08 07:30:19;;;;;;;5.53;4.05;;;;;;;0.19;80.48;96559.11;1732425;82;22292;-88
2021/04/08 07:32:59;;;;;;;5.40;3.65;;;;;;;0.40;80.32;96580.08;1735350;82;21215;-87
2021/04/08 07:35:41;;;;;;;5.65;3.90;;;;;;;0.54;80.38;96579.74;1729368;82;21112;-87
2021/04/08 07:38:08;;;;;;;7.25;4.42;;;;;;;0.66;79.81;96572.52;1727844;82;21116;-87
2021/04/08 07:40:36;;;;;;;9.60;5.72;;;;;;;0.66;79.81;96572.52;1729167;82;21149;-86
2021/04/08 07:43:16;;;;;;;3.55;2.55;;;;;;;0.77;79.47;96586.95;1737974;82;21152;-87
2021/04/08 07:45:43;;;;;;;6.62;4.53;;;;;;;0.75;79.28;96591.59;1734007;82;21490;-88
2021/04/08 07:48:11;;;;;;;7.30;4.25;;;;;;;0.67;79.33;96574.91;1729998;82;21286;-86
2021/04/08 07:50:41;;;;;;;3.85;3.12;;;;;;;0.75;79.27;96608.55;1735632;82;21143;-86
2021/04/08 07:53:14;;;;;;;5.97;4.15;;;;;;;0.62;79.32;96602.66;1720738;82;21476;-86
2021/04/08 07:55:42;;;;;;;4.50;1.85;;;;;;;0.48;79.61;96620.24;1670055;83;21547;-86
2021/04/08 07:58:16;;;;;;;4.83;3.05;;;;;;;0.41;79.95;96616.37;1705224;83;21128;-89
2021/04/08 08:00:53;;;;;;;6.58;3.80;;;;;;;0.35;80.10;96630.78;1715679;83;21160;-87
2021/04/08 08:03:25;;;;;;;6.85;3.30;;;;;;;0.39;80.08;96634.55;1710275;83;21200;-90
2021/04/08 08:05:58;;;;;;;6.78;3.52;;;;;;;0.38;79.78;96632.95;1717732;83;21119;-91
2021/04/08 08:08:44;;;;;;;10.08;3.90;;;;;;;0.46;79.78;96647.05;1706762;82;21129;-89
2021/04/08 08:11:15;;;;;;;7.80;5.35;;;;;;;0.58;79.46;96656.58;1737996;82;21516;-87
2021/04/08 08:13:56;;;;;;;7.15;4.10;;;;;;;0.74;79.09;96638.27;1769246;81;21108;-89
2021/04/08 08:16:27;;;;;;;13.85;5.53;;;;;;;0.87;78.12;96666.05;1758123;81;21169;-87
2021/04/08 08:19:00;;;;;;;4.35;3.05;;;;;;;1.15;77.33;96653.32;1747610;81;21154;-87
2021/04/08 08:21:37;;;;;;;11.05;4.40;;;;;;;1.52;76.22;96668.97;1748607;81;21187;-87
2021/04/08 08:24:12;;;;;;;8.28;4.85;;;;;;;1.83;74.13;96647.09;1752824;81;21100;-87
2021/04/08 08:26:49;;;;;;;9.75;5.65;;;;;;;1.78;72.92;96666.03;1771590;81;21088;-87
2021/04/08 08:29:23;;;;;;;5.53;3.80;;;;;;;1.83;73.07;96658.03;1767417;81;21139;-89
2021/04/08 08:31:58;;;;;;;6.25;3.95;;;;;;;1.97;71.72;96668.11;1762332;80;21638;-88
2021/04/08 08:34:33;;;;;;;10.48;4.12;;;;;;;1.88;70.34;96648.52;1751914;81;21096;-89
2021/04/08 08:37:11;;;;;;;6.12;3.67;;;;;;;1.83;70.17;96678.45;1765943;81;21518;-89
2021/04/08 08:39:47;;;;;;;8.98;4.92;;;;;;;1.84;70.17;96677.95;1770351;81;21126;-88
2021/04/08 08:42:18;;;;;;;7.03;4.22;;;;;;;1.71;70.36;96677.09;1767583;81;21243;-88
2021/04/08 08:44:46;;;;;;;15.90;7.58;;;;;;;1.61;70.76;96691.69;1766389;81;21108;-88
2021/04/08 08:47:19;;;;;;;10.20;5.80;;;;;;;1.54;71.10;96700.09;1764380;81;21513;-88
2021/04/08 08:49:50;;;;;;;9.00;5.85;;;;;;;1.62;71.42;96696.69;1768413;81;21196;-88
2021/04/08 08:52:28;;;;;;;9.10;4.78;;;;;;;1.66;71.31;96699.66;1770503;81;21322;-89
2021/04/08 08:54:56;;;;;;;10.30;5.08;;;;;;;1.75;71.50;96706.19;1754359;81;21175;-88
2021/04/08 08:57:25;;;;;;;9.30;4.45;;;;;;;1.72;70.26;96694.36;1770210;81;21140;-89
2021/04/08 08:59:52;;;;;;;5.05;3.37;;;;;;;1.70;69.87;96699.53;1769152;81;21219;-87
2021/04/08 09:02:22;;;;;;;7.80;4.47;;;;;;;1.64;69.89;96699.08;1747276;81;21175;-88
2021/04/08 09:04:55;;;;;;;8.23;5.10;;;;;;;1.69;69.66;96689.58;1771368;80;21088;-88
2021/04/08 09:07:30;;;;;;;5.85;3.95;;;;;;;1.67;69.01;96706.48;1773124;80;21262;-88
2021/04/08 09:10:03;;;;;;;6.28;3.58;;;;;;;1.60;69.22;96699.23;1772607;81;21617;-86
2021/04/08 09:12:33;;;;;;;6.85;4.47;;;;;;;1.58;69.96;96708.61;1772048;80;21141;-86
2021/04/08 09:15:01;;;;;;;5.95;4.28;;;;;;;1.52;70.51;96726.95;1773326;81;21561;-88
2021/04/08 09:17:47;;;;;;;4.50;2.83;;;;;;;1.30;72.06;96713.53;1751332;81;21510;-87
2021/04/08 09:20:19;;;;;;;6.20;2.37;;;;;;;1.17;72.75;96702.20;1759518;80;21183;-89
2021/04/08 09:23:07;;;;;;;6.42;5.22;;;;;;;1.15;73.31;96726.43;1754960;81;21740;-89
2021/04/08 09:25:39;;;;;;;5.67;3.95;;;;;;;1.28;73.05;96733.84;1761032;81;21226;-91
2021/04/08 09:28:14;;;;;;;9.98;4.33;;;;;;;1.38;72.88;96716.64;1762759;81;21164;-91
2021/04/08 09:31:04;;;;;;;6.92;3.10;;;;;;;1.62;71.46;96730.66;1749905;80;21154;-92
2021/04/08 09:33:48;;;;;;;6.55;4.10;;;;;;;1.56;70.82;96741.20;1739918;81;21127;-91
2021/04/08 09:36:27;;;;;;;6.67;4.40;;;;;;;1.36;72.53;96723.09;1771453;80;21107;-90
2021/04/08 09:39:06;;;;;;;8.35;4.78;;;;;;;1.04;74.42;96752.44;1773251;80;21141;-86
2021/04/08 09:41:52;;;;;;;10.63;5.60;;;;;;;0.88;75.16;96765.52;1760301;81;21201;-88
2021/04/08 09:44:23;;;;;;;8.98;4.60;;;;;;;0.91;75.48;96746.81;1765781;81;21333;-89
2021/04/08 09:46:59;;;;;;;7.37;4.33;;;;;;;0.82;74.40;96733.22;1747113;80;21139;-88
2021/04/08 09:49:47;;;;;;;7.85;4.72;;;;;;;1.09;72.48;96753.88;1754442;80;21440;-88
2021/04/08 09:52:16;;;;;;;8.58;4.92;;;;;;;1.12;72.62;96756.86;1759518;80;21106;-87
2021/04/08 09:54:57;;;;;;;9.05;5.70;;;;;;;1.18;72.42;96766.46;1761640;80;21314;-87
2021/04/08 09:57:37;;;;;;;10.13;5.03;;;;;;;1.28;72.60;96773.02;1769895;81;21109;-87
2021/04/08 10:00:09;;;;;;;10.00;4.50;;;;;;;1.34;72.37;96752.05;1768792;80;21511;-87
2021/04/08 10:02:37;;;;;;;11.45;5.87;;;;;;;1.37;71.52;96761.27;1767538;80;21164;-87
2021/04/08 10:05:12;;;;;;;10.45;4.40;;;;;;;1.56;71.25;96765.51;1769287;80;21144;-86
2021/04/08 10:07:56;;;;;;;13.38;6.70;;;;;;;1.72;69.64;96767.54;1761627;80;21139;-86
2021/04/08 10:10:40;;;;;;;16.12;8.00;;;;;;;1.87;69.65;96767.68;1756828;81;21116;-86
2021/04/08 10:13:29;;;;;;;10.75;4.90;;;;;;;2.13;69.47;96769.19;1771230;80;21226;-86
2021/04/08 10:16:01;;;;;;;12.18;6.05;;;;;;;2.16;67.75;96767.43;1725733;82;21468;-87
2021/04/08 10:18:31;;;;;;;47.00;18.07;;;;;;;2.14;66.73;96779.42;1734279;81;21307;-87
2021/04/08 10:21:03;;;;;;;13.50;5.97;;;;;;;2.15;66.49;96767.94;1738248;81;21176;-87
2021/04/08 10:23:44;;;;;;;51.70;19.25;;;;;;;2.07;66.48;96782.61;1736561;82;21275;-87
2021/04/08 10:26:15;;;;;;;9.93;5.15;;;;;;;2.01;66.72;96786.91;1723490;81;21242;-87
2021/04/08 10:28:55;;;;;;;8.88;5.28;;;;;;;2.07;66.90;96789.95;1720718;81;21479;-86
2021/04/08 10:31:34;;;;;;;;;;;;;;;2.28;66.38;96783.98;1709011;82;21137;-87
2021/04/08 10:34:16;;;;;;;8.33;4.78;;;;;;;2.73;65.02;96781.73;1708288;82;20158;-87
2021/04/08 10:36:49;;;;;;;9.23;4.17;;;;;;;2.82;63.93;96784.33;1746178;81;21103;-88
2021/04/08 10:39:25;;;;;;;7.15;3.98;;;;;;;3.01;63.42;96773.77;1743005;81;21395;-86
2021/04/08 10:42:07;;;;;;;2.98;2.40;;;;;;;3.09;63.06;96785.20;1745053;81;21572;-87
2021/04/08 10:44:42;;;;;;;19.65;8.00;;;;;;;3.12;61.34;96780.34;1725717;81;21127;-88
2021/04/08 10:47:20;;;;;;;10.40;4.37;;;;;;;2.96;61.96;96788.86;1725118;81;21280;-88
2021/04/08 10:49:57;;;;;;;44.55;15.63;;;;;;;2.87;62.19;96798.05;1737993;81;21175;-87
2021/04/08 10:52:30;;;;;;;5.20;2.35;;;;;;;2.81;62.01;96798.41;1757253;81;21291;-87
2021/04/08 10:55:00;;;;;;;27.70;11.53;;;;;;;2.70;61.56;96801.83;1742386;80;21135;-87
2021/04/08 10:57:30;;;;;;;17.27;7.12;;;;;;;2.61;62.92;96805.77;1736450;82;21089;-88
2021/04/08 10:59:59;;;;;;;20.62;9.13;;;;;;;2.62;62.83;96800.30;1738766;82;21183;-87
2021/04/08 11:02:40;;;;;;;13.38;6.65;;;;;;;2.55;62.55;96800.13;1722099;82;21140;-88
2021/04/08 11:05:24;;;;;;;8.33;3.83;;;;;;;2.46;63.09;96814.53;1724819;81;21179;-90
2021/04/08 11:07:57;;;;;;;29.98;13.28;;;;;;;2.44;62.08;96807.41;1760047;80;21147;-88
2021/04/08 11:10:30;;;;;;;20.85;7.80;;;;;;;2.57;62.51;96808.04;1732158;82;21534;-88
2021/04/08 11:13:01;;;;;;;17.42;7.83;;;;;;;2.88;62.42;96801.75;1773710;80;21115;-88
2021/04/08 11:15:33;;;;;;;12.20;5.20;;;;;;;3.38;62.07;96800.55;1772413;80;21621;-88
2021/04/08 11:18:11;;;;;;;6.83;3.50;;;;;;;3.87;62.00;96806.63;1763201;80;21163;-87
2021/04/08 11:20:45;;;;;;;6.80;3.25;;;;;;;4.07;61.26;96808.87;1738536;80;21172;-88
2021/04/08 11:23:19;;;;;;;6.53;3.02;;;;;;;4.05;58.47;96802.27;1747321;80;21510;-87
2021/04/08 11:26:06;;;;;;;4.83;2.95;;;;;;;3.86;57.42;96811.59;1782549;80;21127;-88
2021/04/08 11:28:41;;;;;;;7.70;2.52;;;;;;;4.02;59.17;96814.02;1754876;80;21439;-88
2021/04/08 11:31:15;;;;;;;6.67;3.40;;;;;;;3.93;57.66;96816.70;1771992;79;21121;-87
2021/04/08 11:33:43;;;;;;;5.80;3.25;;;;;;;3.62;57.69;96813.95;1771465;79;21522;-88
2021/04/08 11:36:21;;;;;;;6.85;2.95;;;;;;;3.52;59.22;96818.98;1739332;82;21260;-87
2021/04/08 11:38:50;;;;;;;7.33;3.42;;;;;;;3.42;59.15;96809.58;1771341;80;21080;-87
2021/04/08 11:41:18;;;;;;;8.48;3.85;;;;;;;3.22;60.75;96816.43;1769343;80;21146;-88
2021/04/08 11:43:52;;;;;;;6.80;3.90;;;;;;;3.21;61.60;96820.08;1760648;80;21143;-88
2021/04/08 11:46:35;;;;;;;6.72;3.22;;;;;;;3.20;62.18;96823.20;1743823;80;21159;-87
2021/04/08 11:49:15;;;;;;;5.20;3.42;;;;;;;3.19;62.50;96829.47;1743588;82;21467;-88
2021/04/08 11:51:43;;;;;;;;;;;;;;;3.12;62.93;96837.16;1776716;80;21194;-87
2021/04/08 11:54:16;;;;;;;6.20;3.10;;;;;;;3.05;63.30;96847.73;1771088;80;20123;-87
2021/04/08 11:56:44;;;;;;;7.25;3.77;;;;;;;3.12;64.02;96854.98;1711072;82;21513;-85
2021/04/08 11:59:22;;;;;;;6.15;2.95;;;;;;;2.90;64.74;96866.47;1763391;80;21196;-87